AirNav   Everest Fuels
 
 441 users online  

IN2 Snow Lake Seaplane Base
Jamestown, Indiana, USA


FAA INFORMATION EFFECTIVE 22 APRIL 2021

Location

FAA Identifier: IN2
Lat/Long: 41-43-47.4900N 085-01-57.2700W
41-43.791500N 085-01.954500W
41.7298583,-85.0325750
(estimated)
Elevation: 965 ft. / 294 m (estimated)
From city: 1 mile SE of JAMESTOWN, IN
Time zone: UTC -4 (UTC -5 during Standard Time)
Zip code: 46703

Seaplane Base Operations

Seaplane Base use: Open to the public
Activation date: 08/2020
Control tower: no
ARTCC: CHICAGO CENTER
FSS: TERRE HAUTE FLIGHT SERVICE STATION
NOTAMs facility: HUF (NOTAM-D service available)
Attendance: 
Segmented circle: no

Seaplane Base Communications

CTAF: 122.9
WX AWOS-3 at ANQ (6 nm SW): 118.175 (260-668-5630)
WX AWOS-3 at OEB (12 nm N): 118.125 (517-279-1810)
WX AWOS-3P at C62 (19 nm SW): 119.925 (260-347-2967)
WX AWOS-3 at IRS (19 nm W): 121.325 (269-659-8715)

Nearby radio navigation aids

VOR radial/distance  VOR name  Freq  Var
LFDr216/23.3LITCHFIELD VOR/DME111.2005W
OLKr039/(35.7)WEBSTER LAKE VOR110.4003W
AZOr144/38.3KALAMAZOO VOR/DME109.0001W

 
NDB name  Hdg/Dist  Freq  Var  ID
STURGIS110/18.638204WIRS .. .-. ...

Seaplane Base Services

Runway Information

Runway 16W/34W

Dimensions: 2675 x 100 ft. / 815 x 30 m
Surface: water
RUNWAY 16W  RUNWAY 34W
Latitude: 41-44.007000N41-43.589500N
Longitude: 085-02.056833W085-01.863333W
Elevation: 965.0 ft.965.0 ft.
Traffic pattern: leftleft

Seaplane Base Ownership and Management from official FAA records

Ownership: Publicly-owned
Owner: INDIANA DEPT. OF NAT. RESOURCES
402 W. WASHINGTON ST., RM W-255D
INDIANAPOLIS, IN 46204
Phone 317-232-0935
Manager: KENTON TURNER
402 W. WASHINGTON ST., RM W-255D
INDIANAPOLIS, IN 46204
Phone 317-232-0935

Instrument Procedures

There are no published instrument procedures at IN2.

Some nearby airports with instrument procedures:

KANQ - Tri-State Steuben County Airport (6 nm SW)
KOEB - Branch County Memorial Airport (12 nm N)
C62 - Kendallville Municipal Airport (19 nm SW)
KIRS - Kirsch Municipal Airport (19 nm W)
KJYM - Hillsdale Municipal Airport (23 nm NE)
 
Loc | Ops | Rwys | IFR | FBO | Links
Com | Nav | Svcs | Stats | Notes
Aerial photo
No photo
 
Airport distance calculator
Flying to Snow Lake Seaplane Base? Find the distance to fly.

From to IN2

Sunrise and sunset
Times for 15-May-2021
 Local
(UTC-4)
 Zulu
(UTC)
Morning civil twilight05:5009:50
Sunrise06:2110:21
Sunset20:5200:52
Evening civil twilight21:2301:23

Current date and time
Zulu (UTC)  15-May-2021 09:02:48
Local (UTC-4)  15-May-2021 05:02:48
 
METAR
KANQ 
6nm SW 
150855Z AUTO 00000KT 10SM FEW055 FEW090 07/05 A3025 RMK AO2
KOEB 
11nm N 
150855Z AUTO 00000KT 10SM CLR 06/04 A3025 RMK AO2 T00550038
KIRS 
18nm W 
150855Z AUTO 00000KT 10SM CLR 08/02 A3024 RMK AO2 T00770021
KC62 
19nm SW 
150835Z AUTO 00000KT 10SM CLR 07/04 A3025 RMK AO2 T00760045
TAF
KBTL 
36nm N 
150521Z 1506/1606 00000KT P6SM SCT090 BKN250 FM151600 24011KT P6SM BKN120 FM152300 28004KT P6SM -SHRA OVC050 FM160400 14003KT P6SM OVC040
KAZO 
38nm NW 
150521Z 1506/1606 00000KT P6SM SCT090 BKN250 FM151600 22011KT P6SM BKN120 FM152200 26004KT P6SM -SHRA OVC050 FM160400 14003KT P6SM OVC040
KJXN 
41nm NE 
150521Z 1506/1606 00000KT P6SM FEW100 BKN250 FM151600 23006KT P6SM BKN070 FM160000 00000KT P6SM -SHRA OVC050
NOTAMs
Click for the latest NOTAMs
NOTAMs are issued by the DoD/FAA and will open in a separate window not controlled by AirNav.

 

 
 

Would you like to see your business listed on this page?

 If your business provides an interesting product or service to pilots, flight crews, aircraft, or users of the Snow Lake Seaplane Base, you should consider listing it here.  To start the listing process, click on the button below
 
Add a business
 

Other Pages about Snow Lake Seaplane Base

Update a link
 
Copyright © AirNav, LLC. All rights reserved. Privacy Policy  Contact